Time;durP1;ratioP1;P1;durP2;ratioP2;P2;SDS_P1;SDS_P2;PMS_P1;PMS_P2;Temp;Humidity;BMP_temperature;BMP_pressure;BME280_temperature;BME280_humidity;BME280_pressure;Samples;Min_cycle;Max_cycle;Signal;HPM_P1;HPM_P2
2022/10/29 00:01:58;;;;;;;10.00;4.00;;;17.30;99.90;;;;;;5130101;27;20245;-69
2022/10/29 00:04:25;;;;;;;9.50;3.93;;;17.30;99.90;;;;;;5129759;27;20643;-68
2022/10/29 00:06:51;;;;;;;12.23;4.10;;;17.30;99.90;;;;;;5130186;27;20206;-69
2022/10/29 00:09:18;;;;;;;8.53;4.10;;;17.30;99.90;;;;;;5130046;27;20212;-68
2022/10/29 00:11:45;;;;;;;6.63;3.63;;;17.30;99.90;;;;;;5130137;27;20209;-69
2022/10/29 00:14:12;;;;;;;15.27;4.40;;;17.30;99.90;;;;;;5130128;27;20205;-68
2022/10/29 00:16:40;;;;;;;9.43;4.23;;;17.40;99.90;;;;;;5129820;27;20201;-68
2022/10/29 00:19:08;;;;;;;12.93;3.80;;;17.40;99.90;;;;;;5130188;27;20209;-68
2022/10/29 00:21:36;;;;;;;14.80;4.20;;;17.40;99.90;;;;;;5127714;27;20247;-68
2022/10/29 00:24:04;;;;;;;8.47;3.70;;;17.30;99.90;;;;;;5109069;28;20550;-68
2022/10/29 00:26:31;;;;;;;12.30;4.00;;;17.30;99.90;;;;;;5109316;28;20213;-68
2022/10/29 00:28:58;;;;;;;7.90;4.00;;;17.30;99.90;;;;;;5109632;28;20206;-68
2022/10/29 00:31:25;;;;;;;8.43;3.90;;;17.30;99.90;;;;;;5129465;27;20790;-68
2022/10/29 00:33:53;;;;;;;12.17;3.83;;;17.30;99.90;;;;;;5129676;27;20202;-68
2022/10/29 00:36:23;;;;;;;11.40;4.30;;;17.20;99.90;;;;;;5129409;27;20287;-68
2022/10/29 00:38:50;;;;;;;10.73;4.13;;;17.20;99.90;;;;;;5109233;28;20213;-68
2022/10/29 00:41:19;;;;;;;7.73;4.27;;;17.20;99.90;;;;;;5108731;28;20222;-68
2022/10/29 00:43:48;;;;;;;8.67;4.20;;;17.20;99.90;;;;;;5108802;28;20703;-68
2022/10/29 00:46:21;;;;;;;9.03;4.07;;;17.20;99.90;;;;;;5108827;28;20210;-68
2022/10/29 00:48:50;;;;;;;12.10;4.60;;;17.10;99.90;;;;;;5119127;27;20212;-68
2022/10/29 00:51:18;;;;;;;10.00;3.60;;;17.20;99.90;;;;;;5129235;27;20675;-68
2022/10/29 00:53:52;;;;;;;9.83;4.20;;;17.10;99.90;;;;;;5129748;27;20197;-68
2022/10/29 00:56:19;;;;;;;10.47;4.33;;;17.10;99.90;;;;;;5121580;27;20578;-68
2022/10/29 00:58:46;;;;;;;7.67;4.00;;;17.10;99.90;;;;;;5108875;28;20198;-68
2022/10/29 01:01:13;;;;;;;8.60;4.00;;;17.10;99.90;;;;;;5108738;28;20245;-68
2022/10/29 01:03:42;;;;;;;15.30;4.50;;;17.10;99.90;;;;;;5108108;28;20234;-69
2022/10/29 01:06:09;;;;;;;10.87;4.70;;;17.10;99.90;;;;;;5108912;27;20350;-68
2022/10/29 01:08:35;;;;;;;11.23;4.53;;;17.10;99.90;;;;;;5108365;28;20685;-68
2022/10/29 01:11:12;;;;;;;11.90;4.63;;;17.10;99.90;;;;;;5108395;28;20221;-68
2022/10/29 01:13:54;;;;;;;7.37;3.93;;;17.10;99.90;;;;;;5108465;28;20194;-68
2022/10/29 01:16:29;;;;;;;9.90;3.93;;;17.00;99.90;;;;;;5107891;27;20194;-68
2022/10/29 01:19:01;;;;;;;7.37;4.27;;;17.00;99.90;;;;;;5124169;27;20566;-68
2022/10/29 01:21:42;;;;;;;13.67;4.47;;;17.00;99.90;;;;;;5128632;27;20210;-68
2022/10/29 01:24:49;;;;;;;12.77;4.93;;;17.00;99.90;;;;;;5128654;27;20274;-68
2022/10/29 01:27:48;;;;;;;10.20;4.40;;;17.00;99.90;;;;;;5111402;27;20198;-68
2022/10/29 01:30:21;;;;;;;10.10;4.80;;;16.90;99.90;;;;;;5108093;28;20567;-68
2022/10/29 01:33:06;;;;;;;11.23;5.17;;;16.90;99.90;;;;;;5117029;27;20705;-68
2022/10/29 01:35:41;;;;;;;6.13;4.20;;;16.90;99.90;;;;;;5128739;27;20224;-68
2022/10/29 01:38:20;;;;;;;11.27;4.83;;;16.80;99.90;;;;;;5128468;27;20671;-68
2022/10/29 01:40:53;;;;;;;7.57;4.80;;;16.90;99.90;;;;;;5128373;27;20225;-68
2022/10/29 01:43:26;;;;;;;11.53;4.60;;;16.80;99.90;;;;;;5128467;27;20222;-68
2022/10/29 01:45:56;;;;;;;10.40;4.97;;;16.80;99.90;;;;;;5128164;27;20417;-68
2022/10/29 01:48:27;;;;;;;13.23;5.30;;;16.80;99.90;;;;;;5128116;27;20668;-68
2022/10/29 01:50:58;;;;;;;8.53;4.43;;;16.80;99.90;;;;;;5128240;27;20193;-68
2022/10/29 01:53:27;;;;;;;8.90;5.10;;;16.80;99.90;;;;;;5128357;27;20198;-68
2022/10/29 01:55:54;;;;;;;11.33;5.03;;;16.80;99.90;;;;;;5128214;27;20220;-68
2022/10/29 01:58:21;;;;;;;14.73;5.20;;;16.80;99.90;;;;;;5128216;27;20208;-69
2022/10/29 02:00:57;;;;;;;9.00;5.00;;;16.80;99.90;;;;;;5128524;27;20205;-68
2022/10/29 02:03:35;;;;;;;9.87;5.17;;;16.80;99.90;;;;;;5127963;27;20236;-68
2022/10/29 02:06:11;;;;;;;12.47;4.70;;;16.70;99.90;;;;;;5128619;27;20213;-68
2022/10/29 02:08:44;;;;;;;20.10;5.20;;;16.70;99.90;;;;;;5128220;27;20496;-68
2022/10/29 02:11:17;;;;;;;8.10;5.13;;;16.70;99.90;;;;;;5128382;27;20981;-68
2022/10/29 02:13:50;;;;;;;7.93;4.70;;;16.70;99.90;;;;;;5128229;27;20224;-68
2022/10/29 02:16:17;;;;;;;9.93;5.47;;;16.60;99.90;;;;;;5128184;27;20194;-68
2022/10/29 02:18:48;;;;;;;15.40;5.63;;;16.60;99.90;;;;;;5128104;27;20365;-68
2022/10/29 02:21:15;;;;;;;12.70;5.43;;;16.60;99.90;;;;;;5128066;27;20246;-68
2022/10/29 02:23:42;;;;;;;12.10;4.73;;;16.50;99.90;;;;;;5128310;27;20280;-68
2022/10/29 02:26:09;;;;;;;11.07;5.13;;;16.50;99.90;;;;;;5128077;27;20210;-68
2022/10/29 02:28:36;;;;;;;10.30;5.27;;;16.50;99.90;;;;;;5129696;27;20198;-68
2022/10/29 02:31:03;;;;;;;9.67;4.90;;;16.50;99.90;;;;;;5132089;27;20228;-68
2022/10/29 02:33:30;;;;;;;16.13;5.47;;;16.50;99.90;;;;;;5116900;27;20568;-67
2022/10/29 02:35:58;;;;;;;9.23;5.03;;;16.50;99.90;;;;;;5111478;28;20202;-68
2022/10/29 02:38:25;;;;;;;8.37;4.83;;;16.50;99.90;;;;;;5111262;28;20210;-68
2022/10/29 02:40:51;;;;;;;12.70;5.13;;;16.50;99.90;;;;;;5117691;27;20664;-67
2022/10/29 02:43:18;;;;;;;12.37;4.77;;;16.50;99.90;;;;;;5131694;27;20299;-68
2022/10/29 02:45:45;;;;;;;10.90;5.03;;;16.40;99.90;;;;;;5131767;27;20999;-68
2022/10/29 02:48:12;;;;;;;13.83;5.13;;;16.50;99.90;;;;;;5131646;27;20209;-68
2022/10/29 02:50:38;;;;;;;15.80;5.20;;;16.50;99.90;;;;;;5131925;27;20206;-69
2022/10/29 02:53:06;;;;;;;11.70;5.53;;;16.40;99.90;;;;;;5132001;27;20201;-67
2022/10/29 02:55:33;;;;;;;15.07;5.33;;;16.40;99.90;;;;;;5131546;27;20212;-68
2022/10/29 02:58:00;;;;;;;12.80;4.83;;;16.40;99.90;;;;;;5131562;27;20672;-67
2022/10/29 03:00:27;;;;;;;12.47;5.70;;;16.30;99.90;;;;;;5131513;27;20202;-67
2022/10/29 03:02:53;;;;;;;14.70;5.10;;;16.30;99.90;;;;;;5131431;27;20247;-67
2022/10/29 03:05:20;;;;;;;11.80;5.33;;;16.40;99.90;;;;;;5131641;27;20213;-68
2022/10/29 03:07:47;;;;;;;8.07;5.50;;;16.30;99.90;;;;;;5131542;27;20216;-68
2022/10/29 03:10:15;;;;;;;11.13;5.27;;;16.20;99.90;;;;;;5130385;27;20203;-68
2022/10/29 03:12:42;;;;;;;13.93;5.93;;;16.30;99.90;;;;;;5111050;28;20202;-68
2022/10/29 03:15:09;;;;;;;12.87;5.97;;;16.30;99.90;;;;;;5111138;28;20583;-68
2022/10/29 03:17:36;;;;;;;14.53;5.23;;;16.30;99.90;;;;;;5110509;28;20578;-68
2022/10/29 03:20:03;;;;;;;12.93;5.07;;;16.30;99.90;;;;;;5110956;28;20202;-68
2022/10/29 03:22:30;;;;;;;12.47;5.60;;;16.30;99.90;;;;;;5110928;28;20240;-67
2022/10/29 03:24:56;;;;;;;11.87;5.27;;;16.30;99.90;;;;;;5110536;28;20292;-67
2022/10/29 03:27:24;;;;;;;9.83;5.50;;;16.30;99.90;;;;;;5113241;27;20201;-68
2022/10/29 03:29:51;;;;;;;11.93;5.67;;;16.30;99.90;;;;;;5110775;28;20206;-68
2022/10/29 03:32:18;;;;;;;10.60;5.77;;;16.30;99.90;;;;;;5110386;28;20683;-68
2022/10/29 03:34:45;;;;;;;15.73;5.67;;;16.20;99.90;;;;;;5110833;28;20202;-68
2022/10/29 03:37:11;;;;;;;10.80;5.03;;;16.30;99.90;;;;;;5110632;28;20210;-68
2022/10/29 03:39:38;;;;;;;11.93;5.70;;;16.30;99.90;;;;;;5109523;28;20202;-68
2022/10/29 03:42:05;;;;;;;10.40;4.97;;;16.30;99.90;;;;;;5110179;28;20444;-68
2022/10/29 03:44:33;;;;;;;11.57;4.90;;;16.30;99.90;;;;;;5110163;28;20206;-68
2022/10/29 03:47:00;;;;;;;10.67;5.43;;;16.40;99.90;;;;;;5110281;27;20229;-68
2022/10/29 03:49:26;;;;;;;10.73;5.77;;;16.30;99.90;;;;;;5109980;28;20214;-68
2022/10/29 03:51:53;;;;;;;14.93;5.27;;;16.30;99.90;;;;;;5110153;28;20582;-68
2022/10/29 03:54:20;;;;;;;10.70;5.30;;;16.30;99.90;;;;;;5109804;28;20205;-68
2022/10/29 03:56:47;;;;;;;13.70;5.33;;;16.30;99.90;;;;;;5110213;28;20214;-68
2022/10/29 03:59:13;;;;;;;12.93;5.73;;;16.30;99.90;;;;;;5110138;28;20214;-68
2022/10/29 04:01:41;;;;;;;11.23;5.70;;;16.30;99.90;;;;;;5109602;28;20230;-67
2022/10/29 04:04:09;;;;;;;9.43;5.53;;;16.30;99.90;;;;;;5109558;28;20238;-68
2022/10/29 04:06:36;;;;;;;13.33;6.03;;;16.20;99.90;;;;;;5114242;27;20702;-68
2022/10/29 04:09:03;;;;;;;11.87;5.50;;;16.20;99.90;;;;;;5109775;28;20198;-68
2022/10/29 04:11:29;;;;;;;13.20;5.60;;;16.20;99.90;;;;;;5109455;28;20885;-67
2022/10/29 04:13:56;;;;;;;10.07;5.30;;;16.10;99.90;;;;;;5109552;28;20202;-68
2022/10/29 04:16:23;;;;;;;11.90;6.13;;;16.10;99.90;;;;;;5109692;28;20202;-68
2022/10/29 04:18:51;;;;;;;11.10;5.40;;;16.10;99.90;;;;;;5109879;28;20209;-68
2022/10/29 04:21:18;;;;;;;12.53;5.63;;;16.00;99.90;;;;;;5126667;27;20190;-68
2022/10/29 04:23:45;;;;;;;14.83;5.60;;;16.10;99.90;;;;;;5109634;27;20246;-68
2022/10/29 04:26:12;;;;;;;13.83;5.80;;;16.10;99.90;;;;;;5109372;28;20210;-68
2022/10/29 04:28:38;;;;;;;10.47;5.30;;;16.10;99.90;;;;;;5109413;28;20206;-68
2022/10/29 04:31:06;;;;;;;12.93;5.83;;;16.10;99.90;;;;;;5109425;28;20221;-68
2022/10/29 04:33:33;;;;;;;12.60;5.70;;;16.10;99.90;;;;;;5109148;28;20204;-68
2022/10/29 04:36:01;;;;;;;9.07;5.30;;;16.10;99.90;;;;;;5109447;28;20206;-68
2022/10/29 04:38:28;;;;;;;12.87;5.87;;;16.20;99.90;;;;;;5109154;28;20585;-68
2022/10/29 04:40:58;;;;;;;9.67;5.60;;;16.20;99.90;;;;;;5108918;28;20229;-68
2022/10/29 04:43:25;;;;;;;11.67;5.20;;;16.20;99.90;;;;;;5109125;28;20251;-68
2022/10/29 04:45:52;;;;;;;10.70;5.80;;;16.30;99.90;;;;;;5109094;28;20209;-68
2022/10/29 04:48:19;;;;;;;14.13;5.80;;;16.20;99.90;;;;;;5109027;28;20270;-68
2022/10/29 04:50:47;;;;;;;9.47;5.17;;;16.20;99.90;;;;;;5108480;28;20206;-69
2022/10/29 04:53:15;;;;;;;12.00;5.80;;;16.20;99.90;;;;;;5108967;28;20356;-68
2022/10/29 04:55:42;;;;;;;10.73;5.80;;;16.20;99.90;;;;;;5108838;27;20202;-68
2022/10/29 04:58:14;;;;;;;12.40;5.63;;;16.10;99.90;;;;;;5108586;28;20661;-68
2022/10/29 05:00:40;;;;;;;9.43;5.40;;;16.10;99.90;;;;;;5108915;28;20191;-68
2022/10/29 05:03:08;;;;;;;11.03;5.77;;;16.00;99.90;;;;;;5108215;28;20242;-68
2022/10/29 05:05:37;;;;;;;9.40;5.70;;;15.90;99.90;;;;;;5108634;28;20240;-68
2022/10/29 05:08:05;;;;;;;12.53;6.20;;;15.90;99.90;;;;;;5108524;28;20743;-68
2022/10/29 05:10:35;;;;;;;11.40;6.03;;;15.80;99.90;;;;;;5108228;28;20209;-68
2022/10/29 05:13:05;;;;;;;9.63;5.83;;;15.90;99.90;;;;;;5108471;28;20202;-68
2022/10/29 05:15:32;;;;;;;9.03;5.37;;;15.90;99.90;;;;;;5108292;28;20213;-68
2022/10/29 05:17:58;;;;;;;14.93;6.00;;;15.80;99.90;;;;;;5108416;27;20209;-68
2022/10/29 05:20:25;;;;;;;11.87;5.70;;;15.80;99.90;;;;;;5117946;27;20193;-68
2022/10/29 05:22:58;;;;;;;11.73;5.50;;;15.80;99.90;;;;;;5128847;27;20225;-68
2022/10/29 05:25:25;;;;;;;11.07;5.80;;;15.80;99.90;;;;;;5128647;27;20197;-68
2022/10/29 05:28:03;;;;;;;11.07;5.97;;;15.80;99.90;;;;;;5108316;28;20210;-68
2022/10/29 05:30:30;;;;;;;11.97;5.53;;;15.80;99.90;;;;;;5122156;27;20197;-68
2022/10/29 05:32:57;;;;;;;10.53;5.93;;;15.70;99.90;;;;;;5129096;27;20209;-68
2022/10/29 05:35:24;;;;;;;12.67;6.03;;;15.70;99.90;;;;;;5128647;27;20216;-68
2022/10/29 05:37:51;;;;;;;13.67;6.20;;;15.60;99.90;;;;;;5128391;27;20208;-68
2022/10/29 05:40:18;;;;;;;8.30;5.27;;;15.60;99.90;;;;;;5128513;27;20597;-68
2022/10/29 05:42:45;;;;;;;8.80;5.50;;;15.70;99.90;;;;;;5128756;27;20236;-68
2022/10/29 05:45:16;;;;;;;11.03;5.47;;;15.70;99.90;;;;;;5128421;27;20205;-68
2022/10/29 05:47:43;;;;;;;18.07;6.03;;;15.70;99.90;;;;;;5128217;27;20197;-68
2022/10/29 05:50:11;;;;;;;10.97;5.93;;;15.80;99.90;;;;;;5128801;27;20228;-68
2022/10/29 05:52:38;;;;;;;10.93;5.10;;;15.80;99.90;;;;;;5128744;27;20205;-68
2022/10/29 05:55:06;;;;;;;11.37;6.13;;;15.90;99.90;;;;;;5128274;27;20201;-68
2022/10/29 05:57:33;;;;;;;10.80;5.77;;;15.80;99.90;;;;;;5128393;27;20210;-68
2022/10/29 06:00:00;;;;;;;12.63;5.97;;;15.70;99.90;;;;;;5128323;27;20216;-68
2022/10/29 06:02:28;;;;;;;12.93;6.10;;;15.60;99.90;;;;;;5127758;27;20751;-68
2022/10/29 06:04:54;;;;;;;11.87;6.20;;;15.50;99.90;;;;;;5128534;27;20210;-68
2022/10/29 06:07:21;;;;;;;6.87;5.40;;;15.50;99.90;;;;;;5128200;27;20213;-68
2022/10/29 06:09:48;;;;;;;8.40;5.30;;;15.50;99.90;;;;;;5128192;27;20197;-68
2022/10/29 06:12:14;;;;;;;16.37;6.60;;;15.40;99.90;;;;;;5128197;27;20677;-68
2022/10/29 06:14:41;;;;;;;9.43;5.57;;;15.40;99.90;;;;;;5128122;27;20212;-68
2022/10/29 06:17:08;;;;;;;14.60;6.40;;;15.30;99.90;;;;;;5127954;27;20569;-68
2022/10/29 06:19:36;;;;;;;12.67;6.10;;;15.30;99.90;;;;;;5125776;27;20201;-68
2022/10/29 06:22:03;;;;;;;13.90;6.13;;;15.30;99.90;;;;;;5107839;28;20206;-68
2022/10/29 06:24:30;;;;;;;15.50;6.03;;;15.30;99.90;;;;;;5106719;28;20704;-68
2022/10/29 06:26:57;;;;;;;12.23;5.57;;;15.40;99.90;;;;;;5120711;28;20213;-68
2022/10/29 06:29:24;;;;;;;8.80;5.80;;;15.40;99.90;;;;;;5127780;27;20797;-68
2022/10/29 06:31:50;;;;;;;8.93;5.40;;;15.40;99.90;;;;;;5127084;27;20208;-68
2022/10/29 06:34:17;;;;;;;10.10;5.50;;;15.40;99.90;;;;;;5107449;28;20213;-68
2022/10/29 06:36:45;;;;;;;14.47;5.93;;;15.40;99.90;;;;;;5107619;28;20210;-68
2022/10/29 06:39:12;;;;;;;11.37;5.80;;;15.40;99.90;;;;;;5106959;28;20213;-68
2022/10/29 06:41:39;;;;;;;10.93;5.50;;;15.40;99.90;;;;;;5107267;28;20295;-68
2022/10/29 06:44:05;;;;;;;9.63;4.93;;;15.40;99.90;;;;;;5107426;28;20237;-68
2022/10/29 06:46:34;;;;;;;9.93;5.53;;;15.50;99.90;;;;;;5107416;28;20217;-68
2022/10/29 06:49:01;;;;;;;11.70;5.73;;;15.50;99.90;;;;;;5107277;28;20672;-68
2022/10/29 06:51:28;;;;;;;14.40;6.30;;;15.60;99.90;;;;;;5107246;28;20241;-68
2022/10/29 06:53:56;;;;;;;11.13;5.70;;;15.60;99.90;;;;;;5107374;28;20556;-68
2022/10/29 06:56:23;;;;;;;13.40;5.37;;;15.60;99.90;;;;;;5111629;28;20210;-68
2022/10/29 06:58:49;;;;;;;9.97;5.63;;;15.60;99.90;;;;;;5107502;28;20206;-68
2022/10/29 07:01:16;;;;;;;13.30;6.03;;;15.70;99.90;;;;;;5107197;28;20229;-68
2022/10/29 07:03:43;;;;;;;11.50;5.73;;;15.70;99.90;;;;;;5112073;28;20241;-68
2022/10/29 07:06:10;;;;;;;7.70;5.27;;;15.70;99.90;;;;;;5127720;27;20202;-68
2022/10/29 07:08:36;;;;;;;11.07;5.30;;;15.80;99.90;;;;;;5127621;27;20205;-68
2022/10/29 07:11:06;;;;;;;8.60;5.53;;;15.80;99.90;;;;;;5127698;27;20201;-68
2022/10/29 07:13:32;;;;;;;12.80;5.70;;;15.90;99.90;;;;;;5127798;27;20209;-68
2022/10/29 07:15:59;;;;;;;12.70;6.43;;;16.00;99.90;;;;;;5131047;27;20201;-68
2022/10/29 07:18:26;;;;;;;11.73;5.90;;;16.10;99.90;;;;;;5131105;27;20209;-68
2022/10/29 07:20:53;;;;;;;10.93;5.67;;;16.10;99.90;;;;;;5131078;27;20226;-68
2022/10/29 07:23:19;;;;;;;10.97;5.93;;;16.20;99.90;;;;;;5131216;27;20228;-68
2022/10/29 07:25:46;;;;;;;9.87;5.70;;;16.30;99.90;;;;;;5127900;27;20237;-68
2022/10/29 07:28:16;;;;;;;7.87;5.53;;;16.30;99.90;;;;;;5110759;28;20206;-68
2022/10/29 07:30:44;;;;;;;11.30;5.97;;;16.30;99.90;;;;;;5110725;28;20190;-68
2022/10/29 07:33:11;;;;;;;11.83;5.70;;;16.30;99.90;;;;;;5110527;27;20213;-68
2022/10/29 07:35:38;;;;;;;14.23;6.20;;;16.30;99.90;;;;;;5110116;28;20216;-68
2022/10/29 07:38:06;;;;;;;10.60;5.90;;;16.30;99.90;;;;;;5110030;28;20692;-68
2022/10/29 07:40:32;;;;;;;12.97;5.73;;;16.30;99.90;;;;;;5110083;28;20296;-68
2022/10/29 07:42:59;;;;;;;7.73;4.93;;;16.30;99.90;;;;;;5110309;28;20206;-68
2022/10/29 07:45:28;;;;;;;8.93;5.43;;;16.30;99.90;;;;;;5110001;28;20229;-68
2022/10/29 07:48:01;;;;;;;11.37;5.40;;;16.40;99.90;;;;;;5110064;28;20736;-68
2022/10/29 07:50:29;;;;;;;10.70;5.27;;;16.40;99.90;;;;;;5109990;28;20206;-68
2022/10/29 07:52:58;;;;;;;8.87;5.03;;;16.40;99.90;;;;;;5114622;27;20210;-68
2022/10/29 07:55:25;;;;;;;13.03;6.00;;;16.40;99.90;;;;;;5109314;28;20213;-68
2022/10/29 07:57:57;;;;;;;10.00;5.80;;;16.50;99.90;;;;;;5110200;28;20210;-68
2022/10/29 08:00:24;;;;;;;12.57;5.43;;;16.50;99.90;;;;;;5121320;27;20198;-68
2022/10/29 08:02:53;;;;;;;10.57;6.00;;;16.50;99.90;;;;;;5130206;27;20230;-68
2022/10/29 08:05:20;;;;;;;13.10;5.60;;;16.50;99.90;;;;;;5129762;27;20225;-68
2022/10/29 08:07:47;;;;;;;12.83;5.20;;;16.40;99.90;;;;;;5129931;27;20225;-68
2022/10/29 08:10:14;;;;;;;13.63;5.67;;;16.50;99.90;;;;;;5129921;27;21059;-68
2022/10/29 08:12:40;;;;;;;12.63;5.20;;;16.50;99.90;;;;;;5130368;27;20206;-68
2022/10/29 08:15:08;;;;;;;9.57;5.80;;;16.50;99.90;;;;;;5130136;27;20284;-68
2022/10/29 08:17:35;;;;;;;13.53;5.50;;;16.60;99.90;;;;;;5129960;27;20202;-68
2022/10/29 08:20:04;;;;;;;9.33;5.47;;;16.70;99.90;;;;;;5115860;27;20209;-68
2022/10/29 08:22:31;;;;;;;8.63;5.60;;;16.60;99.90;;;;;;5130103;27;20205;-68
2022/10/29 08:24:57;;;;;;;8.73;5.17;;;16.70;99.90;;;;;;5129741;27;20228;-68
2022/10/29 08:27:24;;;;;;;9.90;5.87;;;16.80;99.90;;;;;;5113016;27;20237;-68
2022/10/29 08:29:51;;;;;;;7.80;5.70;;;16.80;99.90;;;;;;5109586;27;20198;-69
2022/10/29 08:32:17;;;;;;;11.90;5.37;;;16.90;99.90;;;;;;5109159;28;20205;-68
2022/10/29 08:34:44;;;;;;;10.20;4.83;;;17.00;99.90;;;;;;5109236;28;20210;-68
2022/10/29 08:37:12;;;;;;;10.13;5.80;;;17.10;99.90;;;;;;5109450;28;20214;-68
2022/10/29 08:39:39;;;;;;;13.07;6.43;;;17.10;99.90;;;;;;5108939;28;20202;-69
2022/10/29 08:42:17;;;;;;;9.47;5.90;;;17.20;99.90;;;;;;5109442;28;20198;-68
2022/10/29 08:45:16;;;;;;;12.53;5.40;;;17.20;99.90;;;;;;5108793;28;20707;-68
2022/10/29 08:47:52;;;;;;;10.03;5.70;;;17.30;99.90;;;;;;5108625;28;20300;-69
2022/10/29 08:50:26;;;;;;;10.53;6.07;;;17.40;99.90;;;;;;5109160;28;20194;-68
2022/10/29 08:52:54;;;;;;;11.40;6.33;;;17.50;99.90;;;;;;5109076;28;20226;-68
2022/10/29 08:55:25;;;;;;;11.90;5.63;;;17.50;99.90;;;;;;5108593;28;20206;-68
2022/10/29 08:57:55;;;;;;;11.33;5.97;;;17.50;99.90;;;;;;5109067;28;20190;-69
2022/10/29 09:00:23;;;;;;;13.77;5.90;;;17.50;99.90;;;;;;5109041;28;20367;-68
2022/10/29 09:02:53;;;;;;;11.50;5.37;;;17.60;99.90;;;;;;5110006;27;20237;-68
2022/10/29 09:05:24;;;;;;;13.40;6.23;;;17.60;99.90;;;;;;5129205;27;20221;-68
2022/10/29 09:08:03;;;;;;;12.07;6.23;;;17.60;99.90;;;;;;5129445;27;20217;-68
2022/10/29 09:10:40;;;;;;;9.13;5.50;;;17.60;99.90;;;;;;5128769;27;20640;-68
2022/10/29 09:13:25;;;;;;;12.67;5.77;;;17.70;99.90;;;;;;5129006;27;20250;-68
2022/10/29 09:16:06;;;;;;;12.97;5.63;;;17.70;99.90;;;;;;5111874;27;20578;-68
2022/10/29 09:18:54;;;;;;;9.90;5.27;;;17.80;99.90;;;;;;5108584;28;20198;-68
2022/10/29 09:21:32;;;;;;;12.60;5.53;;;17.80;99.90;;;;;;5125697;27;20205;-68
2022/10/29 09:24:12;;;;;;;11.93;5.20;;;17.90;99.90;;;;;;5128725;27;20229;-68
2022/10/29 09:26:48;;;;;;;7.80;5.23;;;18.00;99.90;;;;;;5118376;27;20205;-68
2022/10/29 09:29:43;;;;;;;12.37;5.83;;;18.10;99.90;;;;;;5108501;28;20276;-68
2022/10/29 09:32:14;;;;;;;10.97;4.70;;;18.20;99.90;;;;;;5108489;28;20194;-68
2022/10/29 09:34:47;;;;;;;13.63;5.37;;;18.30;99.90;;;;;;5108378;28;20229;-68
2022/10/29 09:37:16;;;;;;;8.43;4.37;;;18.30;99.90;;;;;;5107888;27;20606;-68
2022/10/29 09:39:46;;;;;;;11.93;5.47;;;18.40;99.90;;;;;;5107999;28;20206;-68
2022/10/29 09:42:17;;;;;;;13.73;5.97;;;18.50;99.90;;;;;;5108138;28;20190;-68
2022/10/29 09:44:51;;;;;;;10.00;4.90;;;18.50;99.90;;;;;;5107974;28;20557;-68
2022/10/29 09:47:26;;;;;;;15.30;5.60;;;18.50;99.90;;;;;;5108118;28;20201;-67
2022/10/29 09:50:12;;;;;;;11.73;5.10;;;18.50;99.90;;;;;;5108150;28;20186;-68
2022/10/29 09:52:41;;;;;;;13.70;5.10;;;18.50;99.90;;;;;;5107523;28;20643;-68
2022/10/29 09:55:18;;;;;;;9.53;5.17;;;18.40;99.90;;;;;;5107828;28;20210;-67
2022/10/29 09:57:45;;;;;;;9.07;4.77;;;18.30;99.90;;;;;;5107990;28;20210;-68
2022/10/29 10:00:19;;;;;;;13.20;5.57;;;18.30;99.90;;;;;;5118537;27;20650;-68
2022/10/29 10:02:53;;;;;;;12.93;5.17;;;18.20;99.90;;;;;;5127956;27;20233;-68
2022/10/29 10:05:24;;;;;;;7.70;4.63;;;18.20;99.90;;;;;;5128144;27;20216;-68
2022/10/29 10:08:06;;;;;;;12.37;5.53;;;18.20;99.90;;;;;;5128029;27;21014;-68
2022/10/29 10:10:35;;;;;;;9.47;4.90;;;18.20;99.90;;;;;;5127451;27;20661;-68
2022/10/29 10:13:04;;;;;;;9.63;5.00;;;18.20;99.90;;;;;;5128118;27;20780;-68
2022/10/29 10:15:33;;;;;;;10.10;4.80;;;18.30;99.90;;;;;;5127988;27;20213;-68
2022/10/29 10:18:02;;;;;;;12.97;4.83;;;18.30;99.90;;;;;;5128166;27;20210;-68
2022/10/29 10:20:33;;;;;;;9.70;4.50;;;18.40;99.90;;;;;;5118073;27;20220;-68
2022/10/29 10:23:00;;;;;;;10.33;4.53;;;18.60;99.90;;;;;;5107370;28;20198;-68
2022/10/29 10:25:37;;;;;;;11.23;4.87;;;18.70;99.90;;;;;;5107301;28;20253;-68
2022/10/29 10:28:16;;;;;;;9.33;4.47;;;18.80;99.90;;;;;;5128030;27;20205;-68
2022/10/29 10:30:42;;;;;;;11.53;5.40;;;18.90;99.90;;;;;;5127959;27;20266;-68
2022/10/29 10:33:24;;;;;;;13.40;5.67;;;19.00;99.90;;;;;;5127373;27;20732;-68
2022/10/29 10:35:52;;;;;;;8.90;4.77;;;19.10;99.90;;;;;;5128003;27;20204;-68
2022/10/29 10:38:19;;;;;;;10.40;5.00;;;19.10;99.90;;;;;;5127802;27;20214;-68
2022/10/29 10:40:55;;;;;;;10.97;5.77;;;19.10;99.90;;;;;;5127743;27;20212;-68
2022/10/29 10:43:24;;;;;;;10.57;5.90;;;19.30;99.90;;;;;;5127660;27;20195;-69
2022/10/29 10:45:56;;;;;;;10.87;5.23;;;19.40;99.90;;;;;;5127725;27;20600;-68
2022/10/29 10:48:25;;;;;;;9.53;5.23;;;19.50;99.90;;;;;;5127712;27;20201;-68
2022/10/29 10:51:07;;;;;;;11.63;5.50;;;19.50;99.90;;;;;;5131576;27;20209;-68
2022/10/29 10:53:34;;;;;;;11.83;5.20;;;19.60;99.90;;;;;;5131960;27;20213;-68
2022/10/29 10:56:03;;;;;;;11.87;5.10;;;19.70;99.90;;;;;;5131368;27;20240;-69
2022/10/29 10:58:35;;;;;;;9.20;5.40;;;19.80;99.90;;;;;;5131518;27;20572;-68
2022/10/29 11:01:06;;;;;;;9.00;5.20;;;19.90;99.90;;;;;;5131730;27;22003;-68
2022/10/29 11:03:38;;;;;;;12.10;5.40;;;20.00;99.90;;;;;;5131248;27;20233;-68
2022/10/29 11:06:09;;;;;;;10.10;5.50;;;20.00;99.90;;;;;;5131772;27;20226;-69
2022/10/29 11:08:41;;;;;;;17.30;5.83;;;20.00;99.90;;;;;;5131457;27;20208;-68
2022/10/29 11:11:12;;;;;;;8.13;5.10;;;20.00;99.90;;;;;;5131210;27;20221;-68
2022/10/29 11:13:41;;;;;;;11.47;5.37;;;20.10;99.90;;;;;;5131417;27;20202;-69
2022/10/29 11:16:15;;;;;;;13.53;5.87;;;20.20;99.90;;;;;;5130910;27;20628;-68
2022/10/29 11:18:45;;;;;;;12.85;5.22;;;20.30;99.90;;;;;;5131246;27;20210;-68
2022/10/29 11:21:14;;;;;;;11.53;5.47;;;20.50;99.90;;;;;;5115258;27;20217;-68
2022/10/29 11:23:50;;;;;;;10.33;5.03;;;20.50;99.90;;;;;;5110212;28;20213;-69
2022/10/29 11:26:25;;;;;;;11.13;5.30;;;20.60;99.90;;;;;;5110520;28;20636;-68
2022/10/29 11:28:58;;;;;;;9.33;5.13;;;20.70;99.90;;;;;;5110727;28;20296;-68
2022/10/29 11:31:34;;;;;;;11.50;5.13;;;20.60;99.90;;;;;;5110870;28;20194;-68
2022/10/29 11:34:10;;;;;;;10.55;4.85;;;20.60;99.90;;;;;;5110553;28;20194;-69
2022/10/29 11:36:42;;;;;;;9.52;4.60;;;20.70;99.90;;;;;;5117209;27;20242;-68
2022/10/29 11:39:13;;;;;;;10.30;5.20;;;20.80;99.90;;;;;;5130957;27;20548;-69
2022/10/29 11:41:46;;;;;;;9.93;4.53;;;20.90;99.90;;;;;;5130927;27;20220;-69
2022/10/29 11:44:15;;;;;;;7.75;4.30;;;20.90;99.90;;;;;;5130785;27;20198;-68
2022/10/29 11:46:55;;;;;;;7.35;4.28;;;21.00;99.90;;;;;;5130931;27;20201;-68
2022/10/29 11:49:40;;;;;;;10.48;4.50;;;21.10;99.90;;;;;;5130965;27;20197;-68
2022/10/29 11:52:11;;;;;;;8.82;5.22;;;21.10;99.90;;;;;;5130778;27;20212;-68
2022/10/29 11:54:47;;;;;;;9.73;4.80;;;21.20;99.90;;;;;;5130582;27;20197;-68
2022/10/29 11:57:22;;;;;;;9.93;4.13;;;21.20;99.90;;;;;;5130694;27;20197;-68
2022/10/29 12:00:02;;;;;;;8.55;4.75;;;21.30;99.90;;;;;;5130360;27;20201;-69
2022/10/29 12:02:42;;;;;;;11.23;5.00;;;21.30;99.90;;;;;;5129557;27;20623;-69
2022/10/29 12:05:21;;;;;;;14.10;4.70;;;21.20;99.90;;;;;;5109786;28;20392;-69
2022/10/29 12:08:07;;;;;;;12.05;5.35;;;21.20;99.90;;;;;;5109794;28;20259;-69
2022/10/29 12:10:45;;;;;;;8.45;5.10;;;21.20;99.90;;;;;;5109497;28;20649;-69
2022/10/29 12:13:22;;;;;;;10.45;4.82;;;21.20;99.90;;;;;;5109803;28;20194;-69
2022/10/29 12:16:01;;;;;;;10.68;4.65;;;21.20;99.90;;;;;;5109638;28;20194;-68
2022/10/29 12:18:38;;;;;;;13.30;5.63;;;21.20;99.90;;;;;;5109715;28;20197;-68
2022/10/29 12:21:12;;;;;;;10.68;4.53;;;21.20;99.90;;;;;;5124529;27;20655;-69
2022/10/29 12:23:50;;;;;;;8.68;4.55;;;21.20;99.90;;;;;;5129893;27;20754;-69
2022/10/29 12:26:25;;;;;;;8.35;5.18;;;21.20;99.90;;;;;;5122401;27;20225;-69
2022/10/29 12:28:58;;;;;;;8.10;4.47;;;21.10;99.90;;;;;;5109200;28;20668;-70
2022/10/29 12:31:30;;;;;;;10.50;4.68;;;21.10;99.90;;;;;;5109252;28;20197;-69
2022/10/29 12:34:03;;;;;;;7.63;4.88;;;21.10;99.90;;;;;;5125075;27;20354;-69
2022/10/29 12:36:36;;;;;;;10.68;5.25;;;21.20;99.90;;;;;;5129511;27;20197;-69
2022/10/29 12:39:11;;;;;;;9.80;4.82;;;21.30;99.90;;;;;;5129550;27;20258;-69
2022/10/29 12:41:43;;;;;;;8.20;4.68;;;21.40;99.90;;;;;;5129592;27;20200;-69
2022/10/29 12:44:17;;;;;;;11.82;5.03;;;21.50;99.90;;;;;;5129669;27;20194;-69
2022/10/29 12:46:53;;;;;;;9.13;4.53;;;21.50;99.90;;;;;;5129415;27;20217;-69
2022/10/29 12:49:30;;;;;;;6.72;4.55;;;21.60;99.90;;;;;;5129206;27;20204;-69
2022/10/29 12:52:02;;;;;;;9.45;5.10;;;21.70;99.90;;;;;;5129768;27;20185;-69
2022/10/29 12:54:36;;;;;;;11.45;5.30;;;21.80;99.90;;;;;;5129081;27;20200;-69
2022/10/29 12:57:05;;;;;;;10.95;4.97;;;21.80;99.90;;;;;;5115657;27;20205;-69